sensor_id;sensor_type;location;lat;lon;timestamp;P1;durP1;ratioP1;P2;durP2;ratioP2
24064;SDS011;12258;50.940;5.330;2022-07-24T00:01:29;8.13;;;5.47;;
24064;SDS011;12258;50.940;5.330;2022-07-24T00:03:55;6.32;;;4.72;;
24064;SDS011;12258;50.940;5.330;2022-07-24T00:06:21;7.35;;;6.00;;
24064;SDS011;12258;50.940;5.330;2022-07-24T00:08:47;5.75;;;5.20;;
24064;SDS011;12258;50.940;5.330;2022-07-24T00:11:13;9.98;;;6.10;;
24064;SDS011;12258;50.940;5.330;2022-07-24T00:13:39;10.32;;;5.38;;
24064;SDS011;12258;50.940;5.330;2022-07-24T00:16:05;6.00;;;4.75;;
24064;SDS011;12258;50.940;5.330;2022-07-24T00:18:31;8.77;;;5.50;;
24064;SDS011;12258;50.940;5.330;2022-07-24T00:20:56;6.93;;;5.72;;
24064;SDS011;12258;50.940;5.330;2022-07-24T00:23:22;9.13;;;6.18;;
24064;SDS011;12258;50.940;5.330;2022-07-24T00:25:49;9.65;;;6.50;;
24064;SDS011;12258;50.940;5.330;2022-07-24T00:28:15;8.02;;;6.53;;
24064;SDS011;12258;50.940;5.330;2022-07-24T00:30:40;8.07;;;5.30;;
24064;SDS011;12258;50.940;5.330;2022-07-24T00:33:06;6.50;;;5.47;;
24064;SDS011;12258;50.940;5.330;2022-07-24T00:35:31;6.63;;;5.22;;
24064;SDS011;12258;50.940;5.330;2022-07-24T00:37:58;8.63;;;6.15;;
24064;SDS011;12258;50.940;5.330;2022-07-24T00:40:23;6.47;;;5.55;;
24064;SDS011;12258;50.940;5.330;2022-07-24T00:42:50;7.90;;;5.03;;
24064;SDS011;12258;50.940;5.330;2022-07-24T00:45:17;11.10;;;5.70;;
24064;SDS011;12258;50.940;5.330;2022-07-24T00:47:43;5.68;;;5.07;;
24064;SDS011;12258;50.940;5.330;2022-07-24T00:50:08;9.50;;;6.85;;
24064;SDS011;12258;50.940;5.330;2022-07-24T00:52:34;11.13;;;7.47;;
24064;SDS011;12258;50.940;5.330;2022-07-24T00:55:01;8.13;;;6.75;;
24064;SDS011;12258;50.940;5.330;2022-07-24T00:57:27;11.57;;;7.38;;
24064;SDS011;12258;50.940;5.330;2022-07-24T00:59:53;8.15;;;6.25;;
24064;SDS011;12258;50.940;5.330;2022-07-24T01:02:18;7.18;;;5.68;;
24064;SDS011;12258;50.940;5.330;2022-07-24T01:04:44;9.73;;;6.43;;
24064;SDS011;12258;50.940;5.330;2022-07-24T01:07:09;6.03;;;5.45;;
24064;SDS011;12258;50.940;5.330;2022-07-24T01:09:36;7.65;;;6.78;;
24064;SDS011;12258;50.940;5.330;2022-07-24T01:12:02;10.93;;;8.07;;
24064;SDS011;12258;50.940;5.330;2022-07-24T01:14:30;7.68;;;6.78;;
24064;SDS011;12258;50.940;5.330;2022-07-24T01:16:57;8.40;;;6.95;;
24064;SDS011;12258;50.940;5.330;2022-07-24T01:19:23;8.00;;;6.00;;
24064;SDS011;12258;50.940;5.330;2022-07-24T01:21:49;8.88;;;6.35;;
24064;SDS011;12258;50.940;5.330;2022-07-24T01:24:16;10.90;;;6.78;;
24064;SDS011;12258;50.940;5.330;2022-07-24T01:26:43;9.68;;;6.47;;
24064;SDS011;12258;50.940;5.330;2022-07-24T01:29:09;11.30;;;7.28;;
24064;SDS011;12258;50.940;5.330;2022-07-24T01:31:35;10.27;;;6.25;;
24064;SDS011;12258;50.940;5.330;2022-07-24T01:34:01;8.68;;;6.35;;
24064;SDS011;12258;50.940;5.330;2022-07-24T01:36:27;8.32;;;6.22;;
24064;SDS011;12258;50.940;5.330;2022-07-24T01:38:53;9.25;;;5.75;;
24064;SDS011;12258;50.940;5.330;2022-07-24T01:41:18;8.35;;;6.75;;
24064;SDS011;12258;50.940;5.330;2022-07-24T01:43:44;8.23;;;6.35;;
24064;SDS011;12258;50.940;5.330;2022-07-24T01:46:09;10.68;;;7.20;;
24064;SDS011;12258;50.940;5.330;2022-07-24T01:48:36;7.43;;;5.35;;
24064;SDS011;12258;50.940;5.330;2022-07-24T01:51:02;10.13;;;8.60;;
24064;SDS011;12258;50.940;5.330;2022-07-24T01:53:28;9.02;;;6.88;;
24064;SDS011;12258;50.940;5.330;2022-07-24T01:55:53;14.23;;;9.00;;
24064;SDS011;12258;50.940;5.330;2022-07-24T01:58:19;8.77;;;7.82;;
24064;SDS011;12258;50.940;5.330;2022-07-24T02:00:45;11.93;;;9.10;;
24064;SDS011;12258;50.940;5.330;2022-07-24T02:03:11;12.35;;;8.82;;
24064;SDS011;12258;50.940;5.330;2022-07-24T02:05:37;12.52;;;9.07;;
24064;SDS011;12258;50.940;5.330;2022-07-24T02:08:03;14.30;;;9.93;;
24064;SDS011;12258;50.940;5.330;2022-07-24T02:10:28;13.27;;;10.15;;
24064;SDS011;12258;50.940;5.330;2022-07-24T02:12:55;11.07;;;8.32;;
24064;SDS011;12258;50.940;5.330;2022-07-24T02:15:21;11.30;;;8.68;;
24064;SDS011;12258;50.940;5.330;2022-07-24T02:17:47;14.65;;;10.38;;
24064;SDS011;12258;50.940;5.330;2022-07-24T02:20:17;13.05;;;9.82;;
24064;SDS011;12258;50.940;5.330;2022-07-24T02:22:43;11.52;;;9.30;;
24064;SDS011;12258;50.940;5.330;2022-07-24T02:25:10;14.40;;;10.15;;
24064;SDS011;12258;50.940;5.330;2022-07-24T02:27:35;15.57;;;11.38;;
24064;SDS011;12258;50.940;5.330;2022-07-24T02:30:06;15.63;;;9.80;;
24064;SDS011;12258;50.940;5.330;2022-07-24T02:32:34;11.35;;;7.75;;
24064;SDS011;12258;50.940;5.330;2022-07-24T02:35:00;16.30;;;11.27;;
24064;SDS011;12258;50.940;5.330;2022-07-24T02:37:25;11.35;;;9.32;;
24064;SDS011;12258;50.940;5.330;2022-07-24T02:39:51;16.95;;;12.23;;
24064;SDS011;12258;50.940;5.330;2022-07-24T02:42:17;18.25;;;11.52;;
24064;SDS011;12258;50.940;5.330;2022-07-24T02:44:42;16.30;;;11.85;;
24064;SDS011;12258;50.940;5.330;2022-07-24T02:47:07;13.63;;;9.90;;
24064;SDS011;12258;50.940;5.330;2022-07-24T02:49:33;22.58;;;16.38;;
24064;SDS011;12258;50.940;5.330;2022-07-24T02:51:59;21.52;;;15.23;;
24064;SDS011;12258;50.940;5.330;2022-07-24T02:54:24;21.30;;;14.60;;
24064;SDS011;12258;50.940;5.330;2022-07-24T02:56:50;21.77;;;16.40;;
24064;SDS011;12258;50.940;5.330;2022-07-24T02:59:15;25.35;;;16.88;;
24064;SDS011;12258;50.940;5.330;2022-07-24T03:01:40;28.20;;;17.45;;
24064;SDS011;12258;50.940;5.330;2022-07-24T03:04:06;24.40;;;16.27;;
24064;SDS011;12258;50.940;5.330;2022-07-24T03:06:34;23.45;;;16.70;;
24064;SDS011;12258;50.940;5.330;2022-07-24T03:09:00;23.80;;;16.83;;
24064;SDS011;12258;50.940;5.330;2022-07-24T03:11:26;26.65;;;17.10;;
24064;SDS011;12258;50.940;5.330;2022-07-24T03:13:52;22.20;;;14.43;;
24064;SDS011;12258;50.940;5.330;2022-07-24T03:16:17;24.52;;;16.30;;
24064;SDS011;12258;50.940;5.330;2022-07-24T03:18:43;20.85;;;16.25;;
24064;SDS011;12258;50.940;5.330;2022-07-24T03:21:13;23.13;;;15.73;;
24064;SDS011;12258;50.940;5.330;2022-07-24T03:23:39;29.63;;;19.42;;
24064;SDS011;12258;50.940;5.330;2022-07-24T03:26:05;27.42;;;19.77;;
24064;SDS011;12258;50.940;5.330;2022-07-24T03:28:30;26.15;;;19.83;;
24064;SDS011;12258;50.940;5.330;2022-07-24T03:30:56;31.35;;;19.75;;
24064;SDS011;12258;50.940;5.330;2022-07-24T03:33:22;28.63;;;19.15;;
24064;SDS011;12258;50.940;5.330;2022-07-24T03:35:47;25.58;;;17.42;;
24064;SDS011;12258;50.940;5.330;2022-07-24T03:38:12;28.95;;;19.40;;
24064;SDS011;12258;50.940;5.330;2022-07-24T03:40:38;35.92;;;22.20;;
24064;SDS011;12258;50.940;5.330;2022-07-24T03:43:04;25.02;;;15.30;;
24064;SDS011;12258;50.940;5.330;2022-07-24T03:45:30;26.08;;;20.35;;
24064;SDS011;12258;50.940;5.330;2022-07-24T03:47:55;22.75;;;17.73;;
24064;SDS011;12258;50.940;5.330;2022-07-24T03:50:21;22.25;;;14.75;;
24064;SDS011;12258;50.940;5.330;2022-07-24T03:52:47;24.15;;;16.45;;
24064;SDS011;12258;50.940;5.330;2022-07-24T03:55:12;28.33;;;18.42;;
24064;SDS011;12258;50.940;5.330;2022-07-24T03:57:38;30.45;;;20.88;;
24064;SDS011;12258;50.940;5.330;2022-07-24T04:00:04;28.52;;;22.20;;
24064;SDS011;12258;50.940;5.330;2022-07-24T04:02:31;33.13;;;21.92;;
24064;SDS011;12258;50.940;5.330;2022-07-24T04:04:57;29.58;;;21.80;;
24064;SDS011;12258;50.940;5.330;2022-07-24T04:07:23;31.58;;;21.85;;
24064;SDS011;12258;50.940;5.330;2022-07-24T04:09:48;35.33;;;23.58;;
24064;SDS011;12258;50.940;5.330;2022-07-24T04:12:14;31.88;;;23.05;;
24064;SDS011;12258;50.940;5.330;2022-07-24T04:14:39;34.28;;;23.00;;
24064;SDS011;12258;50.940;5.330;2022-07-24T04:17:05;38.75;;;26.65;;
24064;SDS011;12258;50.940;5.330;2022-07-24T04:19:30;37.20;;;24.27;;
24064;SDS011;12258;50.940;5.330;2022-07-24T04:21:56;29.70;;;23.55;;
24064;SDS011;12258;50.940;5.330;2022-07-24T04:24:22;39.65;;;28.15;;
24064;SDS011;12258;50.940;5.330;2022-07-24T04:26:48;36.22;;;26.05;;
24064;SDS011;12258;50.940;5.330;2022-07-24T04:29:14;33.40;;;24.25;;
24064;SDS011;12258;50.940;5.330;2022-07-24T04:31:39;37.80;;;28.25;;
24064;SDS011;12258;50.940;5.330;2022-07-24T04:34:05;42.28;;;27.58;;
24064;SDS011;12258;50.940;5.330;2022-07-24T04:36:31;39.55;;;30.13;;
24064;SDS011;12258;50.940;5.330;2022-07-24T04:38:56;41.70;;;29.48;;
24064;SDS011;12258;50.940;5.330;2022-07-24T04:41:22;39.58;;;29.10;;
24064;SDS011;12258;50.940;5.330;2022-07-24T04:43:48;32.95;;;25.58;;
24064;SDS011;12258;50.940;5.330;2022-07-24T04:46:14;44.67;;;30.95;;
24064;SDS011;12258;50.940;5.330;2022-07-24T04:48:40;43.90;;;29.98;;
24064;SDS011;12258;50.940;5.330;2022-07-24T04:51:06;35.80;;;28.08;;
24064;SDS011;12258;50.940;5.330;2022-07-24T04:53:32;40.65;;;27.48;;
24064;SDS011;12258;50.940;5.330;2022-07-24T04:55:57;43.88;;;32.13;;
24064;SDS011;12258;50.940;5.330;2022-07-24T04:58:23;40.05;;;29.05;;
24064;SDS011;12258;50.940;5.330;2022-07-24T05:00:50;44.63;;;32.30;;
24064;SDS011;12258;50.940;5.330;2022-07-24T05:03:16;41.10;;;28.95;;
24064;SDS011;12258;50.940;5.330;2022-07-24T05:05:42;44.38;;;29.85;;
24064;SDS011;12258;50.940;5.330;2022-07-24T05:08:07;42.10;;;30.80;;
24064;SDS011;12258;50.940;5.330;2022-07-24T05:10:33;48.08;;;32.42;;
24064;SDS011;12258;50.940;5.330;2022-07-24T05:12:58;48.70;;;34.67;;
24064;SDS011;12258;50.940;5.330;2022-07-24T05:15:24;43.50;;;32.67;;
24064;SDS011;12258;50.940;5.330;2022-07-24T05:17:50;42.30;;;31.05;;
24064;SDS011;12258;50.940;5.330;2022-07-24T05:20:16;50.72;;;35.47;;
24064;SDS011;12258;50.940;5.330;2022-07-24T05:22:41;46.40;;;32.85;;
24064;SDS011;12258;50.940;5.330;2022-07-24T05:25:07;47.35;;;34.13;;
24064;SDS011;12258;50.940;5.330;2022-07-24T05:27:33;46.60;;;33.58;;
24064;SDS011;12258;50.940;5.330;2022-07-24T05:29:58;48.50;;;34.00;;
24064;SDS011;12258;50.940;5.330;2022-07-24T05:32:23;53.17;;;36.65;;
24064;SDS011;12258;50.940;5.330;2022-07-24T05:34:49;47.60;;;35.72;;
24064;SDS011;12258;50.940;5.330;2022-07-24T05:37:14;50.33;;;36.00;;
24064;SDS011;12258;50.940;5.330;2022-07-24T05:39:40;46.90;;;34.53;;
24064;SDS011;12258;50.940;5.330;2022-07-24T05:42:05;50.83;;;35.42;;
24064;SDS011;12258;50.940;5.330;2022-07-24T05:44:31;40.85;;;30.73;;
24064;SDS011;12258;50.940;5.330;2022-07-24T05:46:56;50.83;;;35.67;;
24064;SDS011;12258;50.940;5.330;2022-07-24T05:49:21;49.15;;;35.13;;
24064;SDS011;12258;50.940;5.330;2022-07-24T05:51:48;47.65;;;35.22;;
24064;SDS011;12258;50.940;5.330;2022-07-24T05:54:13;54.40;;;35.17;;
24064;SDS011;12258;50.940;5.330;2022-07-24T05:56:39;49.85;;;35.00;;
24064;SDS011;12258;50.940;5.330;2022-07-24T05:59:05;51.00;;;36.38;;
24064;SDS011;12258;50.940;5.330;2022-07-24T06:01:31;51.42;;;36.15;;
24064;SDS011;12258;50.940;5.330;2022-07-24T06:03:57;49.92;;;35.38;;
24064;SDS011;12258;50.940;5.330;2022-07-24T06:06:23;54.17;;;38.30;;
24064;SDS011;12258;50.940;5.330;2022-07-24T06:08:48;46.40;;;35.67;;
24064;SDS011;12258;50.940;5.330;2022-07-24T06:11:14;48.42;;;35.33;;
24064;SDS011;12258;50.940;5.330;2022-07-24T06:13:39;54.03;;;35.20;;
24064;SDS011;12258;50.940;5.330;2022-07-24T06:16:04;48.90;;;36.42;;
24064;SDS011;12258;50.940;5.330;2022-07-24T06:18:30;51.28;;;34.63;;
24064;SDS011;12258;50.940;5.330;2022-07-24T06:20:55;51.08;;;33.92;;
24064;SDS011;12258;50.940;5.330;2022-07-24T06:23:21;45.33;;;34.47;;
24064;SDS011;12258;50.940;5.330;2022-07-24T06:25:47;47.55;;;32.47;;
24064;SDS011;12258;50.940;5.330;2022-07-24T06:28:13;44.78;;;31.65;;
24064;SDS011;12258;50.940;5.330;2022-07-24T06:30:39;44.85;;;31.17;;
24064;SDS011;12258;50.940;5.330;2022-07-24T06:33:04;40.28;;;30.55;;
24064;SDS011;12258;50.940;5.330;2022-07-24T06:35:30;45.35;;;30.48;;
24064;SDS011;12258;50.940;5.330;2022-07-24T06:37:58;42.63;;;30.60;;
24064;SDS011;12258;50.940;5.330;2022-07-24T06:40:25;45.10;;;30.95;;
24064;SDS011;12258;50.940;5.330;2022-07-24T06:42:51;41.92;;;29.42;;
24064;SDS011;12258;50.940;5.330;2022-07-24T06:45:17;44.88;;;27.77;;
24064;SDS011;12258;50.940;5.330;2022-07-24T06:47:43;40.15;;;28.52;;
24064;SDS011;12258;50.940;5.330;2022-07-24T06:50:09;32.80;;;26.40;;
24064;SDS011;12258;50.940;5.330;2022-07-24T06:52:36;38.03;;;27.52;;
24064;SDS011;12258;50.940;5.330;2022-07-24T06:55:02;35.35;;;24.80;;
24064;SDS011;12258;50.940;5.330;2022-07-24T06:57:28;34.03;;;24.10;;
24064;SDS011;12258;50.940;5.330;2022-07-24T06:59:54;38.05;;;24.27;;
24064;SDS011;12258;50.940;5.330;2022-07-24T07:02:20;29.95;;;21.83;;
24064;SDS011;12258;50.940;5.330;2022-07-24T07:04:48;31.77;;;23.38;;
24064;SDS011;12258;50.940;5.330;2022-07-24T07:07:14;30.00;;;21.13;;
24064;SDS011;12258;50.940;5.330;2022-07-24T07:09:40;29.42;;;19.45;;
24064;SDS011;12258;50.940;5.330;2022-07-24T07:12:07;29.60;;;17.92;;
24064;SDS011;12258;50.940;5.330;2022-07-24T07:14:33;25.63;;;18.90;;
24064;SDS011;12258;50.940;5.330;2022-07-24T07:16:58;26.85;;;19.58;;
24064;SDS011;12258;50.940;5.330;2022-07-24T07:19:24;28.75;;;18.70;;
24064;SDS011;12258;50.940;5.330;2022-07-24T07:21:49;31.35;;;21.05;;
24064;SDS011;12258;50.940;5.330;2022-07-24T07:24:15;28.77;;;21.63;;
24064;SDS011;12258;50.940;5.330;2022-07-24T07:26:41;31.75;;;20.00;;
24064;SDS011;12258;50.940;5.330;2022-07-24T07:29:07;37.15;;;21.58;;
24064;SDS011;12258;50.940;5.330;2022-07-24T07:31:32;29.38;;;19.42;;
24064;SDS011;12258;50.940;5.330;2022-07-24T07:33:58;24.75;;;19.55;;
24064;SDS011;12258;50.940;5.330;2022-07-24T07:36:24;27.75;;;18.70;;
24064;SDS011;12258;50.940;5.330;2022-07-24T07:38:50;36.47;;;20.73;;
24064;SDS011;12258;50.940;5.330;2022-07-24T07:41:15;32.45;;;22.23;;
24064;SDS011;12258;50.940;5.330;2022-07-24T07:43:44;27.85;;;19.38;;
24064;SDS011;12258;50.940;5.330;2022-07-24T07:46:10;24.70;;;19.30;;
24064;SDS011;12258;50.940;5.330;2022-07-24T07:48:35;30.80;;;18.52;;
24064;SDS011;12258;50.940;5.330;2022-07-24T07:51:01;26.33;;;19.92;;
24064;SDS011;12258;50.940;5.330;2022-07-24T07:53:26;31.17;;;19.45;;
24064;SDS011;12258;50.940;5.330;2022-07-24T07:55:52;27.10;;;18.10;;
24064;SDS011;12258;50.940;5.330;2022-07-24T07:58:21;27.90;;;18.85;;
24064;SDS011;12258;50.940;5.330;2022-07-24T08:00:47;23.77;;;17.38;;
24064;SDS011;12258;50.940;5.330;2022-07-24T08:03:13;26.50;;;19.02;;
24064;SDS011;12258;50.940;5.330;2022-07-24T08:05:39;26.65;;;19.20;;
24064;SDS011;12258;50.940;5.330;2022-07-24T08:08:05;25.90;;;18.55;;
24064;SDS011;12258;50.940;5.330;2022-07-24T08:10:30;27.85;;;17.17;;
24064;SDS011;12258;50.940;5.330;2022-07-24T08:12:56;22.73;;;16.42;;
24064;SDS011;12258;50.940;5.330;2022-07-24T08:15:22;23.92;;;16.17;;
24064;SDS011;12258;50.940;5.330;2022-07-24T08:17:54;26.85;;;17.15;;
24064;SDS011;12258;50.940;5.330;2022-07-24T08:20:21;23.10;;;17.27;;
24064;SDS011;12258;50.940;5.330;2022-07-24T08:22:47;22.20;;;15.20;;
24064;SDS011;12258;50.940;5.330;2022-07-24T08:25:13;16.17;;;13.25;;
24064;SDS011;12258;50.940;5.330;2022-07-24T08:27:38;21.35;;;12.73;;
24064;SDS011;12258;50.940;5.330;2022-07-24T08:30:04;16.23;;;11.40;;
24064;SDS011;12258;50.940;5.330;2022-07-24T08:32:30;14.10;;;9.85;;
24064;SDS011;12258;50.940;5.330;2022-07-24T08:34:56;16.30;;;10.32;;
24064;SDS011;12258;50.940;5.330;2022-07-24T08:37:21;17.23;;;9.18;;
24064;SDS011;12258;50.940;5.330;2022-07-24T08:39:47;12.35;;;7.70;;
24064;SDS011;12258;50.940;5.330;2022-07-24T08:42:12;10.27;;;7.72;;
24064;SDS011;12258;50.940;5.330;2022-07-24T08:44:38;9.90;;;7.13;;
24064;SDS011;12258;50.940;5.330;2022-07-24T08:47:04;13.13;;;8.77;;
24064;SDS011;12258;50.940;5.330;2022-07-24T08:49:33;13.18;;;7.47;;
24064;SDS011;12258;50.940;5.330;2022-07-24T08:52:01;8.30;;;7.20;;
24064;SDS011;12258;50.940;5.330;2022-07-24T08:54:28;9.48;;;6.88;;
24064;SDS011;12258;50.940;5.330;2022-07-24T08:56:54;9.23;;;5.43;;
24064;SDS011;12258;50.940;5.330;2022-07-24T08:59:20;11.85;;;7.10;;
24064;SDS011;12258;50.940;5.330;2022-07-24T09:01:47;13.23;;;7.30;;
24064;SDS011;12258;50.940;5.330;2022-07-24T09:07:09;12.20;;;6.07;;
24064;SDS011;12258;50.940;5.330;2022-07-24T09:09:40;5.90;;;5.25;;
24064;SDS011;12258;50.940;5.330;2022-07-24T09:12:16;6.68;;;5.40;;
24064;SDS011;12258;50.940;5.330;2022-07-24T09:14:46;8.50;;;4.90;;
24064;SDS011;12258;50.940;5.330;2022-07-24T09:17:14;7.85;;;5.40;;
24064;SDS011;12258;50.940;5.330;2022-07-24T09:20:00;12.77;;;6.28;;
24064;SDS011;12258;50.940;5.330;2022-07-24T09:22:31;9.80;;;5.63;;
24064;SDS011;12258;50.940;5.330;2022-07-24T09:25:06;10.93;;;5.40;;
24064;SDS011;12258;50.940;5.330;2022-07-24T09:27:36;5.35;;;4.80;;
24064;SDS011;12258;50.940;5.330;2022-07-24T09:30:07;7.80;;;5.47;;
24064;SDS011;12258;50.940;5.330;2022-07-24T09:32:34;10.00;;;4.65;;
24064;SDS011;12258;50.940;5.330;2022-07-24T09:35:01;12.15;;;5.20;;
24064;SDS011;12258;50.940;5.330;2022-07-24T09:37:28;6.43;;;4.63;;
24064;SDS011;12258;50.940;5.330;2022-07-24T09:40:05;10.48;;;5.43;;
24064;SDS011;12258;50.940;5.330;2022-07-24T09:42:32;6.45;;;4.75;;
24064;SDS011;12258;50.940;5.330;2022-07-24T09:45:04;7.32;;;4.90;;
24064;SDS011;12258;50.940;5.330;2022-07-24T09:47:33;5.43;;;4.88;;
24064;SDS011;12258;50.940;5.330;2022-07-24T09:50:10;6.90;;;4.57;;
24064;SDS011;12258;50.940;5.330;2022-07-24T09:52:41;4.95;;;3.33;;
24064;SDS011;12258;50.940;5.330;2022-07-24T09:55:18;4.85;;;3.40;;
24064;SDS011;12258;50.940;5.330;2022-07-24T09:57:45;5.70;;;2.95;;
24064;SDS011;12258;50.940;5.330;2022-07-24T10:00:11;3.92;;;3.25;;
24064;SDS011;12258;50.940;5.330;2022-07-24T10:02:37;5.47;;;2.60;;
24064;SDS011;12258;50.940;5.330;2022-07-24T10:05:03;7.50;;;3.22;;
24064;SDS011;12258;50.940;5.330;2022-07-24T10:07:30;4.82;;;2.50;;
24064;SDS011;12258;50.940;5.330;2022-07-24T10:09:57;3.03;;;2.60;;
24064;SDS011;12258;50.940;5.330;2022-07-24T10:12:25;3.00;;;2.53;;
24064;SDS011;12258;50.940;5.330;2022-07-24T10:14:55;3.50;;;2.50;;
24064;SDS011;12258;50.940;5.330;2022-07-24T10:17:22;5.05;;;3.00;;
24064;SDS011;12258;50.940;5.330;2022-07-24T10:20:11;4.88;;;2.13;;
24064;SDS011;12258;50.940;5.330;2022-07-24T10:23:03;2.50;;;2.30;;
24064;SDS011;12258;50.940;5.330;2022-07-24T10:25:38;2.83;;;2.17;;
24064;SDS011;12258;50.940;5.330;2022-07-24T10:28:20;4.53;;;2.10;;
24064;SDS011;12258;50.940;5.330;2022-07-24T10:31:03;3.53;;;2.20;;
24064;SDS011;12258;50.940;5.330;2022-07-24T10:33:30;2.63;;;2.42;;
24064;SDS011;12258;50.940;5.330;2022-07-24T10:35:57;2.20;;;2.00;;
24064;SDS011;12258;50.940;5.330;2022-07-24T10:38:29;2.50;;;2.25;;
24064;SDS011;12258;50.940;5.330;2022-07-24T10:41:02;2.13;;;1.80;;
24064;SDS011;12258;50.940;5.330;2022-07-24T10:43:31;2.85;;;2.08;;
24064;SDS011;12258;50.940;5.330;2022-07-24T10:57:02;3.58;;;1.92;;
24064;SDS011;12258;50.940;5.330;2022-07-24T10:59:02;2.22;;;1.75;;
24064;SDS011;12258;50.940;5.330;2022-07-24T11:01:45;9.07;;;2.13;;
24064;SDS011;12258;50.940;5.330;2022-07-24T11:09:17;2.20;;;1.70;;
24064;SDS011;12258;50.940;5.330;2022-07-24T11:14:17;4.32;;;2.47;;
24064;SDS011;12258;50.940;5.330;2022-07-24T11:16:43;2.15;;;1.65;;
24064;SDS011;12258;50.940;5.330;2022-07-24T11:21:39;3.65;;;1.80;;
24064;SDS011;12258;50.940;5.330;2022-07-24T11:26:53;2.67;;;1.58;;
24064;SDS011;12258;50.940;5.330;2022-07-24T11:29:22;5.57;;;2.17;;
24064;SDS011;12258;50.940;5.330;2022-07-24T11:31:56;3.30;;;1.70;;
24064;SDS011;12258;50.940;5.330;2022-07-24T11:34:24;3.83;;;2.00;;
24064;SDS011;12258;50.940;5.330;2022-07-24T11:36:51;1.98;;;1.48;;
24064;SDS011;12258;50.940;5.330;2022-07-24T11:39:19;4.72;;;1.83;;
24064;SDS011;12258;50.940;5.330;2022-07-24T11:41:58;1.80;;;1.60;;
24064;SDS011;12258;50.940;5.330;2022-07-24T11:44:29;3.40;;;1.60;;
24064;SDS011;12258;50.940;5.330;2022-07-24T11:46:59;2.35;;;1.73;;
24064;SDS011;12258;50.940;5.330;2022-07-24T11:52:13;2.53;;;1.73;;
24064;SDS011;12258;50.940;5.330;2022-07-24T11:54:43;2.05;;;1.42;;
24064;SDS011;12258;50.940;5.330;2022-07-24T11:57:20;1.60;;;1.50;;
24064;SDS011;12258;50.940;5.330;2022-07-24T11:59:49;2.42;;;1.63;;
24064;SDS011;12258;50.940;5.330;2022-07-24T12:02:16;1.50;;;1.40;;
24064;SDS011;12258;50.940;5.330;2022-07-24T12:04:43;2.10;;;1.83;;
24064;SDS011;12258;50.940;5.330;2022-07-24T12:07:14;1.60;;;1.50;;
24064;SDS011;12258;50.940;5.330;2022-07-24T12:09:48;3.67;;;1.55;;
24064;SDS011;12258;50.940;5.330;2022-07-24T12:12:19;1.85;;;1.73;;
24064;SDS011;12258;50.940;5.330;2022-07-24T12:14:46;2.10;;;1.70;;
24064;SDS011;12258;50.940;5.330;2022-07-24T12:17:12;1.60;;;1.50;;
24064;SDS011;12258;50.940;5.330;2022-07-24T12:19:37;1.65;;;1.55;;
24064;SDS011;12258;50.940;5.330;2022-07-24T12:22:03;3.83;;;1.80;;
24064;SDS011;12258;50.940;5.330;2022-07-24T12:24:30;2.70;;;1.80;;
24064;SDS011;12258;50.940;5.330;2022-07-24T12:26:57;3.03;;;1.67;;
24064;SDS011;12258;50.940;5.330;2022-07-24T12:29:24;3.47;;;1.50;;
24064;SDS011;12258;50.940;5.330;2022-07-24T12:31:52;1.88;;;1.65;;
24064;SDS011;12258;50.940;5.330;2022-07-24T12:34:46;3.83;;;1.40;;
24064;SDS011;12258;50.940;5.330;2022-07-24T12:37:14;3.42;;;2.00;;
24064;SDS011;12258;50.940;5.330;2022-07-24T12:39:47;3.58;;;1.70;;
24064;SDS011;12258;50.940;5.330;2022-07-24T12:42:17;1.98;;;1.40;;
24064;SDS011;12258;50.940;5.330;2022-07-24T12:44:44;1.52;;;1.40;;
24064;SDS011;12258;50.940;5.330;2022-07-24T12:47:11;2.67;;;1.80;;
24064;SDS011;12258;50.940;5.330;2022-07-24T12:49:41;2.08;;;1.48;;
24064;SDS011;12258;50.940;5.330;2022-07-24T12:52:21;1.70;;;1.60;;
24064;SDS011;12258;50.940;5.330;2022-07-24T12:54:49;1.95;;;1.70;;
24064;SDS011;12258;50.940;5.330;2022-07-24T12:57:15;7.10;;;1.73;;
24064;SDS011;12258;50.940;5.330;2022-07-24T12:59:44;1.63;;;1.38;;
24064;SDS011;12258;50.940;5.330;2022-07-24T13:07:08;1.75;;;1.58;;
24064;SDS011;12258;50.940;5.330;2022-07-24T13:09:34;3.75;;;1.83;;
24064;SDS011;12258;50.940;5.330;2022-07-24T13:12:00;1.70;;;1.60;;
24064;SDS011;12258;50.940;5.330;2022-07-24T13:14:26;4.05;;;1.85;;
24064;SDS011;12258;50.940;5.330;2022-07-24T13:16:55;2.90;;;1.65;;
24064;SDS011;12258;50.940;5.330;2022-07-24T13:19:27;4.03;;;1.95;;
24064;SDS011;12258;50.940;5.330;2022-07-24T13:21:53;2.17;;;1.90;;
24064;SDS011;12258;50.940;5.330;2022-07-24T13:24:19;2.10;;;1.50;;
24064;SDS011;12258;50.940;5.330;2022-07-24T13:26:45;2.10;;;1.55;;
24064;SDS011;12258;50.940;5.330;2022-07-24T13:29:11;4.35;;;1.98;;
24064;SDS011;12258;50.940;5.330;2022-07-24T13:31:37;3.35;;;2.08;;
24064;SDS011;12258;50.940;5.330;2022-07-24T13:34:03;4.00;;;1.90;;
24064;SDS011;12258;50.940;5.330;2022-07-24T13:36:29;2.70;;;1.90;;
24064;SDS011;12258;50.940;5.330;2022-07-24T13:38:56;3.33;;;1.85;;
24064;SDS011;12258;50.940;5.330;2022-07-24T13:41:22;1.88;;;1.77;;
24064;SDS011;12258;50.940;5.330;2022-07-24T13:43:49;5.50;;;2.47;;
24064;SDS011;12258;50.940;5.330;2022-07-24T13:46:15;7.10;;;2.22;;
24064;SDS011;12258;50.940;5.330;2022-07-24T13:48:42;4.60;;;2.25;;
24064;SDS011;12258;50.940;5.330;2022-07-24T13:51:09;2.17;;;1.98;;
24064;SDS011;12258;50.940;5.330;2022-07-24T13:53:35;2.00;;;1.80;;
24064;SDS011;12258;50.940;5.330;2022-07-24T13:56:01;2.67;;;2.15;;
24064;SDS011;12258;50.940;5.330;2022-07-24T13:58:28;3.35;;;2.10;;
24064;SDS011;12258;50.940;5.330;2022-07-24T14:00:54;2.58;;;2.20;;
24064;SDS011;12258;50.940;5.330;2022-07-24T14:03:19;2.60;;;2.40;;
24064;SDS011;12258;50.940;5.330;2022-07-24T14:05:45;4.13;;;2.40;;
24064;SDS011;12258;50.940;5.330;2022-07-24T14:08:11;5.45;;;2.70;;
24064;SDS011;12258;50.940;5.330;2022-07-24T14:10:37;2.75;;;2.50;;
24064;SDS011;12258;50.940;5.330;2022-07-24T14:13:02;5.55;;;2.35;;
24064;SDS011;12258;50.940;5.330;2022-07-24T14:15:27;4.18;;;2.20;;
24064;SDS011;12258;50.940;5.330;2022-07-24T14:17:55;3.55;;;2.33;;
24064;SDS011;12258;50.940;5.330;2022-07-24T14:20:20;5.43;;;2.92;;
24064;SDS011;12258;50.940;5.330;2022-07-24T14:22:46;4.68;;;2.53;;
24064;SDS011;12258;50.940;5.330;2022-07-24T14:25:12;4.82;;;2.80;;
24064;SDS011;12258;50.940;5.330;2022-07-24T14:27:38;2.60;;;2.40;;
24064;SDS011;12258;50.940;5.330;2022-07-24T14:30:04;3.60;;;2.95;;
24064;SDS011;12258;50.940;5.330;2022-07-24T14:32:30;3.00;;;2.75;;
24064;SDS011;12258;50.940;5.330;2022-07-24T14:34:58;3.45;;;2.53;;
24064;SDS011;12258;50.940;5.330;2022-07-24T14:37:23;5.32;;;2.47;;
24064;SDS011;12258;50.940;5.330;2022-07-24T14:39:49;5.53;;;2.83;;
24064;SDS011;12258;50.940;5.330;2022-07-24T14:42:15;3.65;;;3.35;;
24064;SDS011;12258;50.940;5.330;2022-07-24T14:44:40;3.10;;;2.67;;
24064;SDS011;12258;50.940;5.330;2022-07-24T14:47:06;3.05;;;2.63;;
24064;SDS011;12258;50.940;5.330;2022-07-24T14:49:31;3.13;;;2.83;;
24064;SDS011;12258;50.940;5.330;2022-07-24T14:51:57;3.67;;;3.25;;
24064;SDS011;12258;50.940;5.330;2022-07-24T14:54:23;2.78;;;2.58;;
24064;SDS011;12258;50.940;5.330;2022-07-24T14:56:49;4.47;;;2.90;;
24064;SDS011;12258;50.940;5.330;2022-07-24T14:59:15;4.50;;;2.92;;
24064;SDS011;12258;50.940;5.330;2022-07-24T15:01:41;3.85;;;2.90;;
24064;SDS011;12258;50.940;5.330;2022-07-24T15:04:07;4.53;;;3.05;;
24064;SDS011;12258;50.940;5.330;2022-07-24T15:06:32;8.25;;;2.95;;
24064;SDS011;12258;50.940;5.330;2022-07-24T15:08:59;3.53;;;2.92;;